Time;durP1;ratioP1;P1;durP2;ratioP2;P2;SDS_P1;SDS_P2;PMS_P1;PMS_P2;Temp;Humidity;BMP_temperature;BMP_pressure;BME280_temperature;BME280_humidity;BME280_pressure;Samples;Min_cycle;Max_cycle;Signal;HPM_P1;HPM_P2
2023/04/17 04:03:57;;;;;;;15.35;9.07;;;;;;;;;;5073001;22;20048;-89
2023/04/17 04:06:23;;;;;;;14.93;10.38;;;;;;;;;;5050927;28;20030;-88
2023/04/17 04:08:49;;;;;;;16.27;10.15;;;;;;;;;;5047598;28;20013;-88
2023/04/17 04:11:16;;;;;;;18.27;10.40;;;;;;;;;;5042118;28;20053;-90
2023/04/17 04:13:42;;;;;;;14.15;9.45;;;;;;;;;;5055555;28;20788;-88
2023/04/17 04:16:08;;;;;;;18.48;9.85;;;;;;;;;;5050591;28;20049;-89
2023/04/17 04:18:35;;;;;;;18.30;9.95;;;;;;;;;;5066407;28;20041;-90
2023/04/17 04:21:01;;;;;;;14.35;8.75;;;;;;;;;;5066146;28;20060;-87
2023/04/17 04:23:29;;;;;;;13.98;9.27;;;;;;;;;;5061106;28;20025;-89
2023/04/17 04:26:00;;;;;;;16.38;9.98;;;;;;;;;;5065596;28;20037;-86
2023/04/17 04:28:26;;;;;;;15.25;9.18;;;;;;;;;;5068812;28;20029;-88
2023/04/17 04:30:54;;;;;;;14.68;9.50;;;;;;;;;;5065495;28;20029;-90
2023/04/17 04:33:20;;;;;;;12.90;8.88;;;;;;;;;;5068193;28;20025;-89
2023/04/17 04:35:50;;;;;;;14.50;9.90;;;;;;;;;;5071323;28;20064;-87
2023/04/17 04:38:16;;;;;;;13.40;8.90;;;;;;;;;;5061317;28;20037;-88
2023/04/17 04:40:50;;;;;;;13.50;9.48;;;;;;;;;;5064049;28;20093;-89
2023/04/17 04:43:16;;;;;;;14.43;9.70;;;;;;;;;;5061626;28;20028;-90
2023/04/17 04:45:42;;;;;;;15.27;9.27;;;;;;;;;;5061986;28;20005;-90
2023/04/17 04:48:09;;;;;;;15.43;9.77;;;;;;;;;;5066337;28;20021;-89
2023/04/17 04:50:35;;;;;;;13.85;9.23;;;;;;;;;;5051762;28;20033;-90
2023/04/17 04:53:03;;;;;;;14.20;9.27;;;;;;;;;;5067089;28;20098;-86
2023/04/17 04:55:29;;;;;;;16.70;9.93;;;;;;;;;;5065627;28;20009;-89
2023/04/17 04:57:56;;;;;;;13.63;8.70;;;;;;;;;;5066094;28;20053;-89
2023/04/17 05:00:22;;;;;;;14.02;9.52;;;;;;;;;;5066020;28;20014;-89
2023/04/17 05:02:48;;;;;;;15.18;9.18;;;;;;;;;;5068361;28;20149;-87
2023/04/17 05:05:14;;;;;;;13.88;9.35;;;;;;;;;;5064914;28;20049;-88
2023/04/17 05:07:40;;;;;;;16.17;9.27;;;;;;;;;;5065221;28;20662;-87
2023/04/17 05:10:06;;;;;;;17.13;9.75;;;;;;;;;;5063010;28;20018;-88
2023/04/17 05:12:33;;;;;;;14.07;8.65;;;;;;;;;;5068476;28;20052;-88
2023/04/17 05:15:00;;;;;;;14.55;9.60;;;;;;;;;;5064837;28;20037;-88
2023/04/17 05:17:26;;;;;;;17.20;9.90;;;;;;;;;;5064394;28;20021;-89
2023/04/17 05:19:52;;;;;;;17.23;9.90;;;;;;;;;;5069562;28;20582;-87
2023/04/17 05:22:18;;;;;;;15.55;9.90;;;;;;;;;;5068355;28;20052;-88
2023/04/17 05:24:44;;;;;;;16.42;9.82;;;;;;;;;;5063413;28;20013;-88
2023/04/17 05:27:10;;;;;;;15.48;10.38;;;;;;;;;;5063147;28;20021;-88
2023/04/17 05:29:36;;;;;;;13.88;9.50;;;;;;;;;;5066320;28;20087;-88
2023/04/17 05:32:02;;;;;;;18.20;9.80;;;;;;;;;;5062121;28;20025;-88
2023/04/17 05:34:40;;;;;;;14.90;10.20;;;;;;;;;;5065185;28;20028;-86
2023/04/17 05:37:06;;;;;;;15.93;9.68;;;;;;;;;;5060074;28;20020;-90
2023/04/17 05:39:35;;;;;;;18.02;9.85;;;;;;;;;;5059950;28;20040;-86
2023/04/17 05:42:01;;;;;;;13.98;9.57;;;;;;;;;;5064620;28;20033;-84
2023/04/17 05:44:27;;;;;;;16.17;10.60;;;;;;;;;;5058781;28;20039;-85
2023/04/17 05:46:55;;;;;;;14.60;10.20;;;;;;;;;;5063246;28;20025;-88
2023/04/17 05:49:22;;;;;;;15.60;10.25;;;;;;;;;;5063189;28;20096;-85
2023/04/17 05:51:48;;;;;;;16.67;11.07;;;;;;;;;;5056685;28;20056;-89
2023/04/17 05:54:15;;;;;;;16.17;10.80;;;;;;;;;;5067435;28;20056;-88
2023/04/17 05:56:40;;;;;;;17.65;11.05;;;;;;;;;;5063879;28;20051;-89
2023/04/17 05:59:06;;;;;;;17.77;10.73;;;;;;;;;;5064791;28;20021;-88
2023/04/17 06:01:32;;;;;;;16.23;10.80;;;;;;;;;;5063832;28;20128;-88
2023/04/17 06:03:58;;;;;;;16.45;10.80;;;;;;;;;;5063043;28;20025;-89
2023/04/17 06:06:25;;;;;;;16.42;10.70;;;;;;;;;;5070081;28;20562;-87
2023/04/17 06:08:53;;;;;;;17.35;11.60;;;;;;;;;;5055822;28;20148;-87
2023/04/17 06:11:19;;;;;;;15.63;10.65;;;;;;;;;;5057693;28;20017;-86
2023/04/17 06:13:45;;;;;;;18.13;11.40;;;;;;;;;;5073292;28;20039;-88
2023/04/17 06:16:11;;;;;;;21.35;11.88;;;;;;;;;;5065295;28;20049;-88
2023/04/17 06:18:40;;;;;;;18.40;11.70;;;;;;;;;;5055847;28;20045;-89
2023/04/17 06:21:06;;;;;;;18.40;10.80;;;;;;;;;;5058343;28;20035;-89
2023/04/17 06:23:32;;;;;;;17.50;11.82;;;;;;;;;;5065674;28;20013;-90
2023/04/17 06:25:58;;;;;;;17.83;11.73;;;;;;;;;;5057264;28;20030;-88
2023/04/17 06:28:25;;;;;;;19.33;11.75;;;;;;;;;;5057282;28;20059;-89
2023/04/17 06:30:51;;;;;;;17.73;11.50;;;;;;;;;;5060833;28;20021;-91
2023/04/17 06:33:17;;;;;;;21.08;13.38;;;;;;;;;;5068301;28;20033;-88
2023/04/17 06:35:43;;;;;;;17.55;12.43;;;;;;;;;;5060817;28;20026;-86
2023/04/17 06:38:09;;;;;;;18.80;12.18;;;;;;;;;;5062915;28;20033;-89
2023/04/17 06:40:35;;;;;;;18.35;11.75;;;;;;;;;;5063058;28;20022;-88
2023/04/17 06:43:01;;;;;;;18.92;12.80;;;;;;;;;;5058176;28;20029;-88
2023/04/17 06:45:27;;;;;;;22.95;13.20;;;;;;;;;;5063461;28;20014;-89
2023/04/17 06:47:53;;;;;;;20.27;12.68;;;;;;;;;;5066793;28;20017;-88
2023/04/17 06:50:19;;;;;;;17.25;11.90;;;;;;;;;;5069913;28;20048;-88
2023/04/17 06:52:45;;;;;;;19.77;13.15;;;;;;;;;;5060285;28;20041;-84
2023/04/17 06:55:11;;;;;;;20.10;12.57;;;;;;;;;;5064230;28;20040;-89
2023/04/17 06:57:37;;;;;;;20.58;12.32;;;;;;;;;;5069636;28;20045;-88
2023/04/17 07:00:04;;;;;;;19.73;12.95;;;;;;;;;;5063992;28;20596;-87
2023/04/17 07:02:30;;;;;;;18.52;12.32;;;;;;;;;;5058677;28;20033;-89
2023/04/17 07:04:56;;;;;;;19.52;12.23;;;;;;;;;;5055053;28;20053;-88
2023/04/17 07:07:22;;;;;;;20.55;12.57;;;;;;;;;;5051778;28;20030;-88
2023/04/17 07:09:48;;;;;;;17.27;12.30;;;;;;;;;;5067866;28;20040;-87
2023/04/17 07:12:17;;;;;;;18.48;11.98;;;;;;;;;;5065947;28;20021;-90
2023/04/17 07:14:43;;;;;;;20.85;12.02;;;;;;;;;;5064385;28;20014;-88
2023/04/17 07:17:09;;;;;;;18.27;12.13;;;;;;;;;;5064985;28;20059;-87
2023/04/17 07:19:36;;;;;;;17.52;12.60;;;;;;;;;;5070049;28;20010;-88
2023/04/17 07:22:04;;;;;;;18.35;11.73;;;;;;;;;;5064419;28;20026;-87
2023/04/17 07:24:33;;;;;;;17.60;12.23;;;;;;;;;;5062803;28;20064;-87
2023/04/17 07:27:00;;;;;;;18.52;12.38;;;;;;;;;;5064014;28;20029;-87
2023/04/17 07:29:26;;;;;;;20.52;12.73;;;;;;;;;;5065029;28;20021;-89
2023/04/17 07:31:52;;;;;;;20.50;12.38;;;;;;;;;;5068273;28;20067;-88
2023/04/17 07:34:18;;;;;;;19.20;12.38;;;;;;;;;;5072271;28;20029;-89
2023/04/17 07:36:45;;;;;;;16.75;11.07;;;;;;;;;;5065892;28;20029;-88
2023/04/17 07:39:11;;;;;;;17.33;11.65;;;;;;;;;;5067442;28;20044;-87
2023/04/17 07:41:37;;;;;;;20.17;12.00;;;;;;;;;;5066866;28;20013;-87
2023/04/17 07:44:04;;;;;;;16.42;10.75;;;;;;;;;;5062154;28;20012;-87
2023/04/17 07:46:31;;;;;;;18.48;12.35;;;;;;;;;;5064643;28;20025;-86
2023/04/17 07:48:57;;;;;;;16.90;11.00;;;;;;;;;;5073833;28;20005;-88
2023/04/17 07:51:23;;;;;;;19.08;11.48;;;;;;;;;;5072226;28;20021;-87
2023/04/17 07:53:49;;;;;;;18.00;11.00;;;;;;;;;;5064357;28;20056;-87
2023/04/17 07:56:16;;;;;;;17.52;11.30;;;;;;;;;;5068961;28;20024;-88
2023/04/17 07:58:43;;;;;;;17.52;11.45;;;;;;;;;;5065950;28;20017;-88
2023/04/17 08:01:09;;;;;;;14.18;9.75;;;;;;;;;;5069394;28;20021;-88
2023/04/17 08:03:35;;;;;;;17.08;10.65;;;;;;;;;;5073636;28;20020;-88
2023/04/17 08:06:02;;;;;;;19.00;10.23;;;;;;;;;;5062534;28;20049;-86
2023/04/17 08:08:28;;;;;;;14.68;10.43;;;;;;;;;;5072810;28;20033;-87
2023/04/17 08:10:54;;;;;;;15.25;10.77;;;;;;;;;;5074718;28;20024;-87
2023/04/17 08:13:20;;;;;;;16.30;9.82;;;;;;;;;;5085029;28;20040;-86
2023/04/17 08:15:46;;;;;;;16.25;10.70;;;;;;;;;;5071712;28;20024;-87
2023/04/17 08:18:12;;;;;;;18.23;10.25;;;;;;;;;;5067081;28;20088;-88
2023/04/17 08:20:39;;;;;;;15.48;10.15;;;;;;;;;;5070936;28;20028;-87
2023/04/17 08:23:05;;;;;;;15.65;9.93;;;;;;;;;;5065338;28;20036;-86
2023/04/17 08:25:31;;;;;;;16.00;9.52;;;;;;;;;;5068015;28;20519;-85
2023/04/17 08:27:57;;;;;;;14.50;9.80;;;;;;;;;;5062105;28;20024;-87
2023/04/17 08:30:23;;;;;;;14.35;9.52;;;;;;;;;;5063662;28;20093;-86
2023/04/17 08:32:50;;;;;;;13.82;9.45;;;;;;;;;;5066173;28;20797;-87
2023/04/17 08:35:17;;;;;;;20.33;9.82;;;;;;;;;;5067606;28;20048;-84
2023/04/17 08:37:45;;;;;;;15.85;10.05;;;;;;;;;;5058108;28;20055;-84
2023/04/17 08:40:12;;;;;;;15.73;9.95;;;;;;;;;;5058536;28;20025;-86
2023/04/17 08:42:38;;;;;;;15.18;9.73;;;;;;;;;;5056481;28;20074;-85
2023/04/17 08:45:06;;;;;;;15.88;9.90;;;;;;;;;;5058260;28;20476;-86
2023/04/17 08:47:33;;;;;;;14.73;10.10;;;;;;;;;;5050367;28;20028;-85
2023/04/17 08:50:01;;;;;;;15.95;10.02;;;;;;;;;;5054537;28;20111;-85
2023/04/17 08:52:27;;;;;;;15.30;9.68;;;;;;;;;;5061365;28;20032;-85
2023/04/17 08:54:53;;;;;;;14.95;8.82;;;;;;;;;;5058171;28;20029;-87
2023/04/17 08:57:19;;;;;;;17.15;9.30;;;;;;;;;;5063408;28;20033;-86
2023/04/17 08:59:45;;;;;;;14.18;9.52;;;;;;;;;;5054233;28;20033;-88
2023/04/17 09:02:11;;;;;;;15.27;9.57;;;;;;;;;;5060030;28;20008;-87
2023/04/17 09:04:41;;;;;;;14.88;9.88;;;;;;;;;;5060162;28;20056;-86
2023/04/17 09:07:11;;;;;;;15.63;9.63;;;13.00;99.90;;;;;;5065183;28;20049;-86
2023/04/17 09:09:47;;;;;;;16.50;10.18;;;;;;;;;;5068526;28;20029;-87
2023/04/17 09:12:13;;;;;;;15.93;9.45;;;;;;;;;;5063386;28;20036;-86
2023/04/17 09:14:40;;;;;;;16.17;9.20;;;;;;;;;;5057199;28;20013;-87
2023/04/17 09:17:06;;;;;;;13.25;9.05;;;;;;;;;;5059022;28;20074;-86
2023/04/17 09:19:32;;;;;;;13.98;8.35;;;;;;;;;;5065386;28;20021;-84
2023/04/17 09:22:17;;;;;;;14.52;9.68;;;13.20;99.90;;;;;;5062102;28;20120;-89
2023/04/17 09:24:46;;;;;;;12.43;8.50;;;;;;;;;;5063260;28;20021;-85
2023/04/17 09:27:22;;;;;;;13.35;8.63;;;;;;;;;;5058945;28;20044;-88
2023/04/17 09:29:58;;;;;;;12.40;7.88;;;;;;;;;;5064714;28;20001;-86
2023/04/17 09:32:25;;;;;;;13.32;7.85;;;;;;;;;;5061069;28;20119;-88
2023/04/17 09:34:52;;;;;;;11.40;7.65;;;;;;;;;;5065224;28;20029;-87
2023/04/17 09:37:18;;;;;;;12.70;8.38;;;;;;;;;;5042148;28;20037;-86
2023/04/17 09:39:57;;;;;;;16.50;8.52;;;;;;;;;;5052252;28;20083;-87
2023/04/17 09:42:24;;;;;;;13.70;8.13;;;;;;;;;;5060835;28;20027;-88
2023/04/17 09:44:50;;;;;;;12.77;8.30;;;;;;;;;;5057210;28;20474;-88
2023/04/17 09:47:17;;;;;;;11.65;8.10;;;;;;;;;;5054148;28;20057;-86
2023/04/17 09:49:48;;;;;;;14.57;8.00;;;;;;;;;;5059750;28;20045;-86
2023/04/17 09:52:15;;;;;;;11.45;8.40;;;;;;;;;;5054764;28;20017;-86
2023/04/17 09:54:42;;;;;;;15.77;8.90;;;;;;;;;;5058344;28;20056;-88
2023/04/17 09:57:08;;;;;;;13.90;9.23;;;;;;;;;;5062424;28;20044;-86
2023/04/17 09:59:38;;;;;;;11.95;7.90;;;;;;;;;;5055446;28;20089;-86
2023/04/17 10:02:08;;;;;;;12.07;8.17;;;;;;;;;;5055458;28;20033;-90
2023/04/17 10:04:34;;;;;;;12.25;8.43;;;;;;;;;;5065071;28;20048;-88
2023/04/17 10:07:01;;;;;;;12.95;8.30;;;;;;;;;;5058600;28;20138;-87
2023/04/17 10:09:27;;;;;;;12.52;8.68;;;;;;;;;;5055527;28;20103;-88
2023/04/17 10:11:55;;;;;;;14.00;8.73;;;;;;;;;;5059051;28;20066;-87
2023/04/17 10:14:25;;;;;;;12.93;8.40;;;;;;;;;;5060543;28;20029;-85
2023/04/17 10:16:52;;;;;;;12.13;8.05;;;;;;;;;;5059098;28;20059;-84
2023/04/17 10:19:31;;;;;;;12.05;8.10;;;;;;;;;;5061620;28;20044;-87
2023/04/17 10:22:19;;;;;;;12.95;8.43;;;;;;;;;;5061570;28;20025;-87
2023/04/17 10:24:50;;;;;;;14.13;8.32;;;;;;;;;;5055241;28;20173;-87
2023/04/17 10:27:25;;;;;;;13.55;8.20;;;;;;;;;;5061343;28;20044;-84
2023/04/17 10:29:55;;;;;;;12.32;7.38;;;;;;;;;;5063712;28;20042;-86
2023/04/17 10:32:26;;;;;;;12.73;7.50;;;;;;;;;;5061391;28;20033;-87
2023/04/17 10:34:57;;;;;;;11.73;7.60;;;;;;;;;;5065906;28;20084;-86
2023/04/17 10:37:43;;;;;;;;;;;12.90;99.90;;;;;;5061401;28;20029;-87
2023/04/17 10:40:10;;;;;;;12.40;8.00;;;;;;;;;;5057224;28;19936;-88
2023/04/17 10:42:36;;;;;;;11.82;7.25;;;;;;;;;;5065468;28;20033;-87
2023/04/17 10:45:04;;;;;;;10.93;7.32;;;;;;;;;;5057272;28;20028;-87
2023/04/17 10:47:34;;;;;;;13.20;7.97;;;;;;;;;;5059944;28;20025;-87
2023/04/17 10:50:04;;;;;;;10.73;7.32;;;;;;;;;;5052732;28;20394;-86
2023/04/17 10:52:33;;;;;;;10.52;6.93;;;;;;;;;;5071206;28;20399;-86
2023/04/17 10:55:03;;;;;;;10.43;6.78;;;;;;;;;;5066115;28;20096;-91
2023/04/17 10:57:51;;;;;;;10.20;6.68;;;;;;;;;;5066533;28;20028;-87
2023/04/17 11:00:18;;;;;;;9.95;6.70;;;;;;;;;;5065388;28;20200;-86
2023/04/17 11:02:44;;;;;;;10.18;6.00;;;;;;;;;;5064051;28;20017;-87
2023/04/17 11:05:11;;;;;;;9.63;6.25;;;;;;;;;;5068309;28;20033;-88
2023/04/17 11:07:37;;;;;;;10.05;6.28;;;;;;;;;;5073773;28;20013;-89
2023/04/17 11:10:06;;;;;;;8.70;5.95;;;;;;;;;;5069662;28;20078;-88
2023/04/17 11:12:32;;;;;;;9.68;6.38;;;;;;;;;;5071879;28;20683;-90
2023/04/17 11:15:02;;;;;;;7.75;5.15;;;;;;;;;;5073560;28;20009;-89
2023/04/17 11:17:29;;;;;;;7.47;5.53;;;;;;;;;;5066132;28;20017;-88
2023/04/17 11:19:55;;;;;;;12.93;5.72;;;;;;;;;;5063651;28;20024;-88
2023/04/17 11:22:24;;;;;;;7.53;5.25;;;;;;;;;;5068826;28;20032;-87
2023/04/17 11:24:50;;;;;;;7.55;5.18;;;;;;;;;;5070173;28;20038;-90
2023/04/17 11:27:17;;;;;;;10.15;5.03;;;;;;;;;;5068412;28;20021;-88
2023/04/17 11:29:44;;;;;;;8.27;4.70;;;;;;;;;;5072248;28;20025;-87
2023/04/17 11:32:11;;;;;;;12.88;4.80;;;;;;;;;;5062093;28;20033;-88
2023/04/17 11:34:37;;;;;;;8.95;4.57;;;;;;;;;;5070998;28;20021;-90
2023/04/17 11:37:04;;;;;;;7.47;4.43;;;;;;;;;;5069746;28;20028;-88
2023/04/17 11:39:31;;;;;;;7.18;4.55;;;;;;;;;;5066527;28;20023;-88
2023/04/17 11:41:58;;;;;;;8.15;3.95;;;;;;;;;;5062102;28;20029;-87
2023/04/17 11:44:24;;;;;;;8.20;4.47;;;;;;;;;;5064760;28;20055;-88
2023/04/17 11:46:50;;;;;;;5.95;3.88;;;;;;;;;;5066363;28;20029;-91
2023/04/17 11:49:23;;;;;;;7.88;4.28;;;;;;;;;;5063024;28;20021;-88
2023/04/17 11:51:49;;;;;;;6.97;3.92;;;;;;;;;;5071010;28;20018;-87
2023/04/17 11:54:28;;;;;;;6.78;4.00;;;;;;;;;;5069188;28;20049;-88
2023/04/17 11:57:05;;;;;;;9.02;4.32;;;;;;;;;;5067907;28;20324;-89
2023/04/17 11:59:31;;;;;;;6.40;3.78;;;;;;;;;;5069425;28;20033;-88
2023/04/17 12:01:59;;;;;;;7.38;4.03;;;;;;;;;;5069422;28;20033;-87
2023/04/17 12:04:26;;;;;;;5.78;3.55;;;;;;;;;;5057974;28;20044;-86
2023/04/17 12:06:53;;;;;;;4.88;3.33;;;;;;;;;;5068712;28;20105;-87
2023/04/17 12:09:23;;;;;;;5.70;3.00;;;;;;;;;;5066451;28;20044;-88
2023/04/17 12:11:51;;;;;;;6.78;3.60;;;;;;;;;;5063611;28;20026;-88
2023/04/17 12:14:17;;;;;;;6.30;3.75;;;;;;;;;;5064702;28;20025;-87
2023/04/17 12:16:46;;;;;;;5.35;3.20;;;;;;;;;;5067589;28;20044;-87
2023/04/17 12:19:15;;;;;;;6.10;3.83;;;;;;;;;;5059118;28;20029;-86
2023/04/17 12:21:42;;;;;;;5.60;3.35;;;;;;;;;;5061550;28;20017;-88
2023/04/17 12:24:08;;;;;;;5.70;4.07;;;;;;;;;;5062098;28;20017;-88
2023/04/17 12:26:34;;;;;;;5.07;3.53;;;;;;;;;;5063462;28;20124;-88
2023/04/17 12:29:00;;;;;;;6.25;4.00;;;;;;;;;;5066691;28;20037;-87
2023/04/17 12:31:26;;;;;;;6.03;3.67;;;;;;;;;;5064981;28;20033;-88
2023/04/17 12:33:52;;;;;;;6.88;4.10;;;;;;;;;;5065525;28;20101;-87
2023/04/17 12:36:18;;;;;;;6.03;3.70;;;;;;;;;;5062639;28;20613;-86
2023/04/17 12:38:45;;;;;;;7.03;3.90;;;;;;;;;;5060541;28;20021;-86
2023/04/17 12:41:11;;;;;;;5.90;3.72;;;;;;;;;;5047692;28;20037;-88
2023/04/17 12:43:37;;;;;;;5.63;3.80;;;;;;;;;;5067219;28;20022;-87
2023/04/17 12:46:03;;;;;;;9.38;4.30;;;;;;;;;;5071933;28;20521;-89
2023/04/17 12:48:30;;;;;;;5.60;3.75;;;;;;;;;;5064794;28;20028;-89
2023/04/17 12:50:56;;;;;;;6.57;4.30;;;;;;;;;;5068253;28;20092;-88
2023/04/17 12:53:22;;;;;;;9.68;4.43;;;;;;;;;;5069182;28;20032;-87
2023/04/17 12:55:48;;;;;;;5.75;3.75;;;;;;;;;;5072523;28;20013;-91
2023/04/17 12:58:14;;;;;;;7.35;4.00;;;;;;;;;;5059964;28;20125;-87
2023/04/17 13:00:43;;;;;;;6.47;4.00;;;;;;;;;;5064919;28;20039;-87
2023/04/17 13:03:10;;;;;;;8.73;4.00;;;;;;;;;;5064684;28;20358;-87
2023/04/17 13:05:36;;;;;;;6.88;4.22;;;;;;;;;;5069027;28;20017;-89
2023/04/17 13:08:02;;;;;;;7.07;3.95;;;;;;;;;;5067982;28;20037;-87
2023/04/17 13:10:28;;;;;;;8.05;4.60;;;;;;;;;;5072198;28;20025;-88
2023/04/17 13:12:54;;;;;;;6.82;4.50;;;;;;;;;;5065868;28;20363;-90
2023/04/17 13:15:20;;;;;;;11.20;5.15;;;;;;;;;;5067813;28;20096;-89
2023/04/17 13:17:46;;;;;;;7.25;4.90;;;;;;;;;;5065252;28;20281;-88
2023/04/17 13:20:13;;;;;;;7.68;4.80;;;;;;;;;;5064454;28;20096;-87
2023/04/17 13:22:39;;;;;;;8.90;5.03;;;;;;;;;;5072236;28;20044;-89
2023/04/17 13:25:05;;;;;;;6.70;4.43;;;;;;;;;;5069614;28;20012;-87
2023/04/17 13:27:31;;;;;;;7.43;4.82;;;;;;;;;;5068652;28;20033;-87
2023/04/17 13:29:57;;;;;;;8.38;5.65;;;;;;;;;;5066784;28;20024;-87
2023/04/17 13:32:23;;;;;;;8.43;5.07;;;;;;;;;;5066332;28;20223;-88
2023/04/17 13:34:49;;;;;;;9.63;5.45;;;;;;;;;;5063738;28;20423;-86
2023/04/17 13:37:16;;;;;;;7.75;4.95;;;;;;;;;;5068197;28;20046;-84
2023/04/17 13:39:42;;;;;;;11.65;5.85;;;;;;;;;;5070356;28;20025;-90
2023/04/17 13:42:10;;;;;;;8.15;5.28;;;;;;;;;;5070771;28;20033;-84
2023/04/17 13:44:36;;;;;;;9.60;5.70;;;;;;;;;;5066712;28;20009;-87
2023/04/17 13:47:02;;;;;;;9.15;4.97;;;;;;;;;;5069246;28;20041;-88
2023/04/17 13:49:28;;;;;;;6.63;4.38;;;;;;;;;;5065390;28;20049;-89
2023/04/17 13:51:54;;;;;;;7.20;4.57;;;;;;;;;;5062948;28;20067;-86
2023/04/17 13:54:20;;;;;;;7.75;3.88;;;;;;;;;;5065736;28;20032;-88
2023/04/17 13:56:46;;;;;;;7.45;3.80;;;;;;;;;;5063207;28;20048;-87
2023/04/17 13:59:12;;;;;;;5.82;3.80;;;;;;;;;;5064213;28;20021;-88
2023/04/17 14:01:38;;;;;;;7.18;4.55;;;;;;;;;;5064626;28;20015;-86
2023/04/17 14:04:04;;;;;;;6.80;4.50;;;;;;;;;;5044201;28;20122;-88
2023/04/17 14:06:31;;;;;;;8.23;4.60;;;;;;;;;;5064330;28;20032;-87
2023/04/17 14:08:57;;;;;;;7.95;4.43;;;;;;;;;;5065271;28;20013;-87
2023/04/17 14:11:24;;;;;;;6.18;3.80;;;;;;;;;;5061897;28;20029;-87
2023/04/17 14:13:50;;;;;;;6.45;4.05;;;;;;;;;;5063160;28;20029;-86
2023/04/17 14:16:17;;;;;;;7.30;4.40;;;;;;;;;;5061348;28;20049;-88
2023/04/17 14:18:52;;;;;;;7.45;3.90;;;;;;;;;;5063417;28;20029;-90
2023/04/17 14:21:21;;;;;;;7.03;3.97;;;;;;;;;;5067152;28;20060;-86
2023/04/17 14:23:50;;;;;;;11.48;5.47;;;;;;;;;;5060916;28;20021;-88
2023/04/17 14:26:16;;;;;;;10.10;5.30;;;;;;;;;;5061589;28;20076;-89
2023/04/17 14:28:42;;;;;;;9.02;4.80;;;;;;;;;;5061224;28;20027;-88
2023/04/17 14:31:08;;;;;;;7.85;4.57;;;;;;;;;;5067005;28;20195;-87
2023/04/17 14:33:34;;;;;;;7.90;5.18;;;;;;;;;;5073412;28;20020;-87
2023/04/17 14:36:21;;;;;;;11.93;5.15;;;;;;;;;;5060130;28;20065;-86
2023/04/17 14:38:48;;;;;;;7.38;4.78;;;;;;;;;;5059153;28;20033;-87
2023/04/17 14:41:18;;;;;;;9.40;5.32;;;;;;;;;;5067489;28;20024;-88
2023/04/17 14:43:50;;;;;;;8.70;5.25;;;;;;;;;;5065220;28;20021;-89
2023/04/17 14:46:16;;;;;;;7.30;4.68;;;;;;;;;;5057803;28;20079;-86
2023/04/17 14:48:42;;;;;;;7.32;4.95;;;;;;;;;;5062822;28;20037;-86
2023/04/17 14:51:12;;;;;;;9.88;5.50;;;;;;;;;;5066687;28;20032;-88
2023/04/17 14:53:38;;;;;;;7.93;5.13;;;;;;;;;;5066398;28;20070;-87
2023/04/17 14:56:05;;;;;;;7.25;5.03;;;;;;;;;;5068495;28;20029;-89
2023/04/17 14:58:33;;;;;;;10.90;4.93;;;;;;;;;;5065483;28;20350;-89
2023/04/17 15:01:00;;;;;;;9.40;5.45;;;;;;;;;;5066425;28;20009;-88
2023/04/17 15:03:30;;;;;;;8.00;4.90;;;;;;;;;;5064147;28;20021;-89
2023/04/17 15:05:58;;;;;;;12.02;5.00;;;;;;;;;;5062627;28;20031;-89
2023/04/17 15:08:25;;;;;;;8.80;4.90;;;;;;;;;;5065599;28;20057;-88
2023/04/17 15:10:51;;;;;;;7.78;4.65;;;;;;;;;;5067581;28;20326;-89
2023/04/17 15:13:17;;;;;;;6.82;4.80;;;;;;;;;;5063793;28;20188;-88
2023/04/17 15:15:43;;;;;;;9.55;4.97;;;;;;;;;;5063719;28;20013;-86
2023/04/17 15:18:09;;;;;;;8.38;5.05;;;;;;;;;;5066529;28;20089;-89
2023/04/17 15:20:38;;;;;;;9.45;5.35;;;;;;;;;;5066646;28;20025;-89
2023/04/17 15:23:04;;;;;;;7.85;4.88;;;;;;;;;;5061827;28;20042;-87
2023/04/17 15:25:30;;;;;;;8.02;4.75;;;;;;;;;;5063534;28;20031;-88
2023/04/17 15:27:56;;;;;;;7.22;4.90;;;;;;;;;;5062111;28;20045;-87
2023/04/17 15:30:22;;;;;;;8.95;5.30;;;;;;;;;;5071558;28;20044;-89
2023/04/17 15:32:51;;;;;;;8.73;5.70;;;;;;;;;;5066881;28;20077;-91
2023/04/17 15:35:20;;;;;;;8.77;5.28;;;;;;;;;;5062057;28;20022;-88
2023/04/17 15:37:47;;;;;;;7.18;5.00;;;;;;;;;;5070217;28;20037;-88
2023/04/17 15:40:13;;;;;;;6.75;4.90;;;;;;;;;;5069633;28;20032;-88
2023/04/17 15:42:39;;;;;;;9.20;5.15;;;;;;;;;;5062016;28;20014;-88
2023/04/17 15:45:05;;;;;;;16.95;8.00;;;;;;;;;;5067577;28;20033;-90
2023/04/17 15:47:32;;;;;;;7.68;4.80;;;;;;;;;;5057216;28;20030;-87
2023/04/17 15:49:58;;;;;;;6.65;4.45;;;;;;;;;;5063369;28;20036;-89
2023/04/17 15:52:24;;;;;;;7.25;4.57;;;;;;;;;;5066720;28;20028;-87
2023/04/17 15:54:50;;;;;;;7.80;4.53;;;;;;;;;;5064926;28;20013;-88
2023/04/17 15:57:16;;;;;;;8.02;4.78;;;;;;;;;;5068233;28;20041;-89
2023/04/17 15:59:42;;;;;;;7.00;4.10;;;;;;;;;;5071380;28;20077;-89
2023/04/17 16:02:11;;;;;;;8.38;5.43;;;;;;;;;;5070980;28;20083;-85
2023/04/17 16:04:38;;;;;;;8.27;5.38;;;;;;;;;;5067006;28;20025;-89
2023/04/17 16:07:04;;;;;;;8.88;4.38;;;;;;;;;;5062173;28;20093;-86
2023/04/17 16:09:30;;;;;;;6.82;3.83;;;;;;;;;;5064100;28;20028;-86
2023/04/17 16:12:09;;;;;;;;;;;;;;;;;;;;;
2023/04/17 16:14:36;;;;;;;6.13;3.85;;;;;;;;;;5069213;28;20044;-86
2023/04/17 16:17:05;;;;;;;10.45;4.32;;;;;;;;;;5070746;28;20032;-87
2023/04/17 16:19:31;;;;;;;5.50;3.85;;;;;;;;;;5069290;28;20009;-88
2023/04/17 16:22:05;;;;;;;9.48;4.10;;;;;;;;;;5072393;28;20013;-89
2023/04/17 16:24:36;;;;;;;8.10;4.20;;;;;;;;;;5066134;28;20466;-89
2023/04/17 16:27:02;;;;;;;10.07;5.22;;;;;;;;;;5070006;28;20058;-88
2023/04/17 16:29:35;;;;;;;7.55;4.15;;;;;;;;;;5074738;28;20041;-89
2023/04/17 16:32:01;;;;;;;6.38;3.70;;;;;;;;;;5067791;28;20049;-88
2023/04/17 16:34:27;;;;;;;8.85;4.88;;;;;;;;;;5070713;28;20068;-87
2023/04/17 16:36:53;;;;;;;9.23;3.55;;;;;;;;;;5066059;28;20092;-89
2023/04/17 16:39:20;;;;;;;10.68;3.53;;;;;;;;;;5062228;28;21772;-88
2023/04/17 16:41:46;;;;;;;7.20;3.15;;;;;;;;;;5060448;28;20021;-89
2023/04/17 16:44:12;;;;;;;7.00;3.85;;;;;;;;;;5063793;28;20036;-88
2023/04/17 16:46:40;;;;;;;8.13;4.18;;;;;;;;;;5059078;28;20029;-89
2023/04/17 16:49:08;;;;;;;8.10;3.10;;;;;;;;;;5066573;28;20041;-85
2023/04/17 16:51:34;;;;;;;5.00;3.08;;;;;;;;;;5060644;28;20008;-88
2023/04/17 16:54:00;;;;;;;4.85;2.75;;;;;;;;;;5067696;28;20033;-88
2023/04/17 16:56:26;;;;;;;6.30;3.53;;;;;;;;;;5067166;28;20031;-88
2023/04/17 16:58:52;;;;;;;8.88;3.78;;;;;;;;;;5064901;28;20482;-86
2023/04/17 17:01:19;;;;;;;6.30;2.95;;;;;;;;;;5062669;28;20012;-90
2023/04/17 17:03:45;;;;;;;6.72;3.22;;;;;;;;;;5064402;28;20044;-91
2023/04/17 17:06:11;;;;;;;6.60;3.28;;;;;;;;;;5060811;28;20021;-87
2023/04/17 17:08:37;;;;;;;7.75;3.60;;;;;;;;;;5063119;28;20068;-86
2023/04/17 17:11:04;;;;;;;5.22;3.15;;;;;;;;;;5067251;28;20516;-87
2023/04/17 17:13:30;;;;;;;8.07;3.28;;;;;;;;;;5073864;28;20020;-87
2023/04/17 17:15:58;;;;;;;6.82;4.07;;;;;;;;;;5074034;28;20025;-89
2023/04/17 17:18:24;;;;;;;8.25;3.33;;;;;;;;;;5067823;28;20051;-89
2023/04/17 17:20:54;;;;;;;7.03;2.95;;;;;;;;;;5074043;28;20001;-88
2023/04/17 17:23:20;;;;;;;5.95;3.25;;;;;;;;;;5048032;28;20044;-88
2023/04/17 17:25:46;;;;;;;4.60;2.60;;;;;;;;;;5067708;28;20093;-89
2023/04/17 17:28:12;;;;;;;5.70;3.00;;;;;;;;;;5069280;28;20086;-88
2023/04/17 17:30:38;;;;;;;5.55;2.60;;;;;;;;;;5064564;28;20020;-88
2023/04/17 17:33:04;;;;;;;5.30;2.92;;;;;;;;;;5070075;28;20029;-89
2023/04/17 17:35:31;;;;;;;4.75;2.85;;;;;;;;;;5061470;28;20031;-88
2023/04/17 17:37:57;;;;;;;4.28;2.50;;;;;;;;;;5065027;28;20047;-88
2023/04/17 17:40:23;;;;;;;7.05;3.60;;;;;;;;;;5063516;28;20036;-87
2023/04/17 17:42:49;;;;;;;8.95;4.68;;;;;;;;;;5062419;28;20040;-86
2023/04/17 17:45:15;;;;;;;9.43;4.00;;;;;;;;;;5064382;28;20036;-89
2023/04/17 17:47:41;;;;;;;3.58;2.38;;;;;;;;;;5059972;28;20032;-88
2023/04/17 17:50:08;;;;;;;4.93;2.58;;;;;;;;;;5068148;28;20114;-88
2023/04/17 17:52:34;;;;;;;5.85;2.83;;;;;;;;;;5063399;28;20032;-87
2023/04/17 17:55:02;;;;;;;4.13;2.38;;;;;;;;;;5070605;28;20005;-87
2023/04/17 17:57:28;;;;;;;4.38;2.55;;;;;;;;;;5068978;28;20039;-88
2023/04/17 17:59:57;;;;;;;5.80;3.05;;;;;;;;;;5065561;28;20025;-89
2023/04/17 18:02:23;;;;;;;3.72;2.53;;;;;;;;;;5060140;28;20029;-87
2023/04/17 18:04:52;;;;;;;5.38;2.60;;;;;;;;;;5061189;28;20084;-89
2023/04/17 18:07:21;;;;;;;6.07;3.10;;;;;;;;;;5062703;28;20033;-86
2023/04/17 18:09:54;;;;;;;5.38;2.60;;;;;;;;;;5063704;28;20056;-87
2023/04/17 18:12:20;;;;;;;6.53;3.08;;;;;;;;;;5066280;28;20047;-88
2023/04/17 18:14:46;;;;;;;4.57;2.80;;;;;;;;;;5058894;28;20021;-86
2023/04/17 18:17:12;;;;;;;5.68;2.85;;;;;;;;;;5063045;28;20031;-88
2023/04/17 18:19:40;;;;;;;5.63;3.00;;;;;;;;;;5057882;28;20096;-90
2023/04/17 18:22:07;;;;;;;6.32;3.35;;;;;;;;;;5055378;28;20039;-86
2023/04/17 18:24:33;;;;;;;6.75;3.40;;;;;;;;;;5060761;28;20047;-87
2023/04/17 18:27:01;;;;;;;4.50;3.00;;;;;;;;;;5056536;28;20029;-87
2023/04/17 18:29:27;;;;;;;5.43;3.10;;;;;;;;;;5041103;28;20037;-88
2023/04/17 18:31:53;;;;;;;6.30;2.90;;;;;;;;;;5052305;28;20036;-90
2023/04/17 18:34:22;;;;;;;6.40;3.00;;;;;;;;;;5056124;28;20032;-88
2023/04/17 18:36:48;;;;;;;5.95;3.00;;;;;;;;;;5052781;28;20032;-87